Time;durP1;ratioP1;P1;durP2;ratioP2;P2;SDS_P1;SDS_P2;PMS_P1;PMS_P2;Temp;Humidity;BMP_temperature;BMP_pressure;BME280_temperature;BME280_humidity;BME280_pressure;Samples;Min_cycle;Max_cycle;Signal;HPM_P1;HPM_P2
2023/10/21 00:00:27;;;;;;;6.30;4.78;;;11.10;99.90;;;;;;5022168;28;20064;-87
2023/10/21 00:02:53;;;;;;;6.05;4.50;;;11.10;99.90;;;;;;5008494;28;20037;-93
2023/10/21 00:05:20;;;;;;;6.05;4.10;;;11.10;99.90;;;;;;5010155;28;20049;-88
2023/10/21 00:07:46;;;;;;;6.35;4.28;;;11.10;99.90;;;;;;4993117;28;20029;-87
2023/10/21 00:10:13;;;;;;;5.60;4.18;;;11.10;99.90;;;;;;4992279;28;20064;-90
2023/10/21 00:12:39;;;;;;;5.75;4.60;;;11.00;99.90;;;;;;5008407;28;20037;-86
2023/10/21 00:15:07;;;;;;;6.30;4.35;;;11.00;99.90;;;;;;5007938;28;20431;-86
2023/10/21 00:17:34;;;;;;;5.13;4.00;;;10.90;99.90;;;;;;5025298;28;20044;-89
2023/10/21 00:20:01;;;;;;;7.93;3.85;;;10.90;99.90;;;;;;4992790;28;20502;-87
2023/10/21 00:22:27;;;;;;;5.13;4.13;;;10.80;99.90;;;;;;5009674;28;20039;-89
2023/10/21 00:24:54;;;;;;;6.60;4.50;;;10.80;99.90;;;;;;4990574;28;20041;-87
2023/10/21 00:27:34;;;;;;;8.82;5.78;;;10.80;99.90;;;;;;5100216;27;20431;-89
2023/10/21 00:30:00;;;;;;;5.80;4.80;;;10.80;99.90;;;;;;5068126;28;20036;-88
2023/10/21 00:32:27;;;;;;;6.72;4.88;;;10.70;99.90;;;;;;5079398;28;20556;-85
2023/10/21 00:34:53;;;;;;;6.78;5.50;;;10.70;99.90;;;;;;5081155;28;20367;-84
2023/10/21 00:37:19;;;;;;;5.82;5.22;;;10.70;99.90;;;;;;5096418;28;20035;-86
2023/10/21 00:39:46;;;;;;;5.50;4.38;;;10.70;99.90;;;;;;5095907;28;20031;-89
2023/10/21 00:42:12;;;;;;;5.22;4.72;;;10.70;99.90;;;;;;5062418;28;20433;-86
2023/10/21 00:44:38;;;;;;;5.75;4.75;;;10.70;99.90;;;;;;5096783;28;20035;-86
2023/10/21 00:47:05;;;;;;;6.68;5.00;;;10.70;99.90;;;;;;5079860;28;20054;-89
2023/10/21 00:49:32;;;;;;;6.25;4.43;;;10.80;99.90;;;;;;5068030;28;20036;-90
2023/10/21 00:51:59;;;;;;;6.25;4.70;;;10.90;99.90;;;;;;5064351;28;20039;-91
2023/10/21 00:54:26;;;;;;;6.65;4.45;;;11.00;99.90;;;;;;5099333;28;20398;-88
2023/10/21 00:56:54;;;;;;;5.85;5.00;;;11.10;99.90;;;;;;5066776;28;20036;-87
2023/10/21 00:59:22;;;;;;;8.13;5.88;;;11.20;99.90;;;;;;5086806;28;20463;-87
2023/10/21 01:01:49;;;;;;;7.68;5.25;;;11.30;99.90;;;;;;5090849;28;20035;-86
2023/10/21 01:04:16;;;;;;;7.35;6.00;;;11.40;99.90;;;;;;5072609;28;20505;-85
2023/10/21 01:06:43;;;;;;;6.85;5.50;;;11.40;99.90;;;;;;5073477;28;20039;-90
2023/10/21 01:09:10;;;;;;;7.82;6.07;;;11.50;99.90;;;;;;5086232;28;20048;-87
2023/10/21 01:11:37;;;;;;;8.82;5.72;;;11.50;99.90;;;;;;5072678;28;20047;-93
2023/10/21 01:14:06;;;;;;;8.27;5.55;;;11.50;99.90;;;;;;5083656;28;20035;-86
2023/10/21 01:16:32;;;;;;;9.63;6.80;;;11.50;99.90;;;;;;5082183;28;20482;-87
2023/10/21 01:18:59;;;;;;;9.05;6.68;;;11.50;99.90;;;;;;5081548;28;20023;-91
2023/10/21 01:21:26;;;;;;;7.70;6.32;;;11.50;99.90;;;;;;5103048;28;20036;-85
2023/10/21 01:23:52;;;;;;;7.22;5.60;;;11.60;99.90;;;;;;5088073;28;20494;-88
2023/10/21 01:26:19;;;;;;;9.18;6.80;;;11.60;99.90;;;;;;5069821;28;20043;-87
2023/10/21 01:28:45;;;;;;;10.20;6.68;;;11.60;99.90;;;;;;5076616;28;20039;-92
2023/10/21 01:31:16;;;;;;;8.40;6.47;;;11.70;99.90;;;;;;5069887;28;20047;-86
2023/10/21 01:33:43;;;;;;;8.95;6.45;;;11.70;99.90;;;;;;5069021;28;20028;-88
2023/10/21 01:36:09;;;;;;;13.57;8.55;;;11.70;99.90;;;;;;5066590;28;20048;-88
2023/10/21 01:38:36;;;;;;;10.85;7.32;;;11.80;99.90;;;;;;5063052;28;20032;-86
2023/10/21 01:41:02;;;;;;;11.07;7.25;;;11.80;99.90;;;;;;5055102;28;20036;-86
2023/10/21 01:43:32;;;;;;;10.20;7.60;;;11.80;99.90;;;;;;5084594;28;20051;-87
2023/10/21 01:46:03;;;;;;;11.23;7.30;;;11.80;99.90;;;;;;5081972;28;20032;-90
2023/10/21 01:48:30;;;;;;;8.40;6.57;;;11.90;99.90;;;;;;5052632;28;20048;-87
2023/10/21 01:51:04;;;;;;;11.65;7.38;;;11.90;99.90;;;;;;5085940;28;20038;-87
2023/10/21 02:38:06;;;;;;;8.38;5.63;;;11.30;99.90;;;;;;5110150;27;20048;-86
2023/10/21 02:40:33;;;;;;;7.47;5.30;;;11.30;99.90;;;;;;5022869;28;20056;-90
2023/10/21 02:43:00;;;;;;;8.80;6.60;;;11.30;99.90;;;;;;5003214;28;20048;-86
2023/10/21 02:45:32;;;;;;;9.10;7.13;;;11.30;99.90;;;;;;5023206;28;20472;-85
2023/10/21 02:47:59;;;;;;;9.45;6.88;;;11.40;99.90;;;;;;5002864;28;20049;-88
2023/10/21 02:50:26;;;;;;;14.75;7.43;;;11.40;99.90;;;;;;5028481;28;20045;-86
2023/10/21 02:52:53;;;;;;;10.50;6.93;;;11.40;99.90;;;;;;5013332;28;20064;-85
2023/10/21 02:55:19;;;;;;;10.18;7.60;;;11.40;99.90;;;;;;5002715;28;20036;-86
2023/10/21 02:57:46;;;;;;;8.95;7.03;;;11.40;99.90;;;;;;5013449;28;20512;-85
2023/10/21 03:00:40;;;;;;;9.48;7.20;;;11.50;99.90;;;;;;5016600;28;20377;-86
2023/10/21 03:03:07;;;;;;;9.45;7.00;;;11.50;99.90;;;;;;5013640;28;20464;-86
2023/10/21 03:05:33;;;;;;;8.35;5.85;;;11.50;99.90;;;;;;5020160;28;20045;-88
2023/10/21 03:08:00;;;;;;;8.20;6.10;;;11.50;99.90;;;;;;5002856;28;20056;-85
2023/10/21 03:10:26;;;;;;;8.70;6.10;;;11.50;99.90;;;;;;5014736;28;20059;-89
2023/10/21 03:12:53;;;;;;;10.60;7.28;;;11.60;99.90;;;;;;4999683;28;20052;-88
2023/10/21 03:15:19;;;;;;;7.70;5.80;;;11.60;99.90;;;;;;5009408;28;20247;-94
2023/10/21 03:17:46;;;;;;;9.30;6.75;;;11.60;99.90;;;;;;5010682;28;20046;-84
2023/10/21 03:20:12;;;;;;;12.93;8.10;;;11.60;99.90;;;;;;5010855;28;20052;-90
2023/10/21 03:22:39;;;;;;;8.45;6.55;;;11.60;99.90;;;;;;5025576;28;20063;-93
2023/10/21 03:25:06;;;;;;;8.98;6.32;;;11.60;99.90;;;;;;5007937;28;20044;-87
2023/10/21 03:27:32;;;;;;;10.75;7.18;;;11.60;99.90;;;;;;5023590;28;20056;-92
2023/10/21 03:29:58;;;;;;;8.73;6.93;;;11.60;99.90;;;;;;5008605;28;20060;-89
2023/10/21 03:32:25;;;;;;;8.90;7.47;;;11.60;99.90;;;;;;5028816;28;20033;-90
2023/10/21 03:34:52;;;;;;;11.60;7.20;;;11.60;99.90;;;;;;5008550;28;20057;-87
2023/10/21 03:37:18;;;;;;;10.88;7.22;;;11.60;99.90;;;;;;4991656;28;20044;-86
2023/10/21 03:39:45;;;;;;;10.68;7.68;;;11.60;99.90;;;;;;5030052;28;20045;-86
2023/10/21 03:42:11;;;;;;;10.57;7.55;;;11.60;99.90;;;;;;5058872;28;20044;-87
2023/10/21 03:44:39;;;;;;;9.27;6.90;;;11.70;99.90;;;;;;5013050;28;20059;-87
2023/10/21 03:47:06;;;;;;;9.88;7.22;;;11.70;99.90;;;;;;5010669;28;20049;-86
2023/10/21 03:49:33;;;;;;;9.35;6.55;;;11.70;99.90;;;;;;5013952;28;20052;-86
2023/10/21 03:51:59;;;;;;;11.52;7.43;;;11.70;99.90;;;;;;5050520;28;20049;-88
2023/10/21 03:54:26;;;;;;;9.43;6.95;;;11.70;99.90;;;;;;5029240;28;20084;-88
2023/10/21 03:56:53;;;;;;;11.93;7.95;;;11.70;99.90;;;;;;5014762;28;20052;-86
2023/10/21 03:59:19;;;;;;;10.45;7.40;;;11.70;99.90;;;;;;5010538;28;20496;-89
2023/10/21 04:01:46;;;;;;;10.20;7.28;;;11.70;99.90;;;;;;5024072;28;20048;-90
2023/10/21 04:04:12;;;;;;;12.50;7.00;;;11.70;99.90;;;;;;5026814;28;20048;-93
2023/10/21 04:06:39;;;;;;;9.00;6.40;;;11.70;99.90;;;;;;5024775;28;20390;-85
2023/10/21 04:09:07;;;;;;;11.75;8.45;;;11.70;99.90;;;;;;5025709;28;20040;-87
2023/10/21 04:11:34;;;;;;;11.10;7.70;;;11.70;99.90;;;;;;5029317;28;20048;-92
2023/10/21 04:14:01;;;;;;;10.73;8.25;;;11.70;99.90;;;;;;5011149;28;20045;-87
2023/10/21 04:16:28;;;;;;;11.15;7.88;;;11.60;99.90;;;;;;5009259;28;20064;-87
2023/10/21 04:18:54;;;;;;;9.63;7.28;;;11.70;99.90;;;;;;5040722;28;20423;-91
2023/10/21 04:21:20;;;;;;;11.20;6.90;;;11.60;99.90;;;;;;5025908;28;20388;-90
2023/10/21 04:23:47;;;;;;;9.38;6.97;;;11.60;99.90;;;;;;5040030;28;20038;-88
2023/10/21 04:26:13;;;;;;;9.48;7.07;;;11.60;99.90;;;;;;5023832;28;20048;-89
2023/10/21 04:28:39;;;;;;;10.02;7.28;;;11.60;99.90;;;;;;5021785;28;20051;-93
2023/10/21 04:31:06;;;;;;;8.15;6.78;;;11.60;99.90;;;;;;5024029;28;20044;-87
2023/10/21 04:33:32;;;;;;;7.78;6.53;;;11.60;99.90;;;;;;5009761;28;20044;-87
2023/10/21 04:35:59;;;;;;;9.32;7.20;;;11.60;99.90;;;;;;5007315;28;20041;-86
2023/10/21 04:38:25;;;;;;;9.70;6.95;;;11.60;99.90;;;;;;5018546;28;20049;-90
2023/10/21 04:40:51;;;;;;;10.25;7.07;;;11.70;99.90;;;;;;5012186;28;20491;-92
2023/10/21 04:43:18;;;;;;;9.77;7.00;;;11.70;99.90;;;;;;5012815;28;20876;-87
2023/10/21 04:45:44;;;;;;;11.13;8.13;;;11.80;99.90;;;;;;5028787;28;20044;-86
2023/10/21 04:48:11;;;;;;;11.82;7.65;;;11.80;99.90;;;;;;5031789;28;20048;-87
2023/10/21 04:50:37;;;;;;;12.38;8.40;;;11.80;99.90;;;;;;5027068;28;20052;-87
2023/10/21 04:53:04;;;;;;;11.93;8.00;;;11.80;99.90;;;;;;5023382;28;20044;-87
2023/10/21 04:55:30;;;;;;;8.95;7.30;;;11.90;99.90;;;;;;5024778;28;20051;-88
2023/10/21 04:57:57;;;;;;;9.77;7.05;;;11.90;99.90;;;;;;5044185;28;20071;-87
2023/10/21 05:00:24;;;;;;;12.30;7.78;;;11.90;99.90;;;;;;5011300;28;20049;-87
2023/10/21 05:02:50;;;;;;;9.90;7.53;;;11.90;99.90;;;;;;5060166;28;20081;-87
2023/10/21 05:05:17;;;;;;;9.52;7.47;;;11.90;99.90;;;;;;5029636;28;20044;-86
2023/10/21 05:07:43;;;;;;;9.48;6.80;;;11.90;99.90;;;;;;5024971;28;20052;-87
2023/10/21 05:10:09;;;;;;;10.40;8.23;;;11.90;99.90;;;;;;5025719;28;20044;-86
2023/10/21 05:12:36;;;;;;;8.93;7.03;;;11.90;99.90;;;;;;5010125;28;20511;-86
2023/10/21 05:15:03;;;;;;;8.50;6.05;;;11.90;99.90;;;;;;5014466;28;20040;-86
2023/10/21 05:17:29;;;;;;;10.73;7.78;;;11.80;99.90;;;;;;5013822;28;20044;-89
2023/10/21 05:19:56;;;;;;;11.40;9.00;;;11.70;99.90;;;;;;5028617;28;20033;-87
2023/10/21 05:22:23;;;;;;;8.70;6.60;;;11.70;99.90;;;;;;5029146;28;21214;-93
2023/10/21 05:24:49;;;;;;;9.05;6.88;;;11.70;99.90;;;;;;5043550;28;20655;-89
2023/10/21 05:27:15;;;;;;;9.38;6.75;;;11.70;99.90;;;;;;5012726;28;20048;-87
2023/10/21 05:29:42;;;;;;;9.13;7.05;;;11.70;99.90;;;;;;5028243;28;20045;-88
2023/10/21 05:32:08;;;;;;;8.98;6.35;;;11.60;99.90;;;;;;5043508;28;20045;-89
2023/10/21 05:34:35;;;;;;;6.03;5.32;;;11.50;99.90;;;;;;5042356;28;20036;-90
2023/10/21 05:37:01;;;;;;;8.00;5.70;;;11.50;99.90;;;;;;5027668;28;20032;-89
2023/10/21 05:39:28;;;;;;;10.93;6.68;;;11.50;99.90;;;;;;5046309;28;20057;-88
2023/10/21 05:41:54;;;;;;;8.85;6.15;;;11.50;99.90;;;;;;5029110;28;20044;-90
2023/10/21 05:44:20;;;;;;;8.43;6.28;;;11.40;99.90;;;;;;5012213;28;20036;-90
2023/10/21 05:46:47;;;;;;;7.10;5.55;;;11.40;99.90;;;;;;5016138;28;20044;-88
2023/10/21 05:49:13;;;;;;;6.10;5.30;;;11.30;99.90;;;;;;5016994;28;20071;-88
2023/10/21 05:51:40;;;;;;;5.82;4.40;;;11.30;99.90;;;;;;5013719;28;20044;-88
2023/10/21 05:54:06;;;;;;;5.65;4.57;;;11.20;99.90;;;;;;5031880;28;20051;-90
2023/10/21 05:56:33;;;;;;;7.50;6.05;;;11.20;99.90;;;;;;5015401;28;20411;-88
2023/10/21 05:58:59;;;;;;;7.07;5.78;;;11.20;99.90;;;;;;5024229;28;20515;-90
2023/10/21 06:01:26;;;;;;;7.45;5.40;;;11.20;99.90;;;;;;5009720;28;20033;-86
2023/10/21 06:03:53;;;;;;;8.60;5.70;;;11.20;99.90;;;;;;5015484;28;20037;-89
2023/10/21 06:06:19;;;;;;;7.32;5.60;;;11.20;99.90;;;;;;5021254;28;20049;-92
2023/10/21 06:08:46;;;;;;;6.57;5.60;;;11.10;99.90;;;;;;5019478;28;20037;-87
2023/10/21 06:11:12;;;;;;;6.15;5.47;;;11.10;99.90;;;;;;5047109;28;20613;-89
2023/10/21 06:13:39;;;;;;;6.25;5.60;;;11.10;99.90;;;;;;5011750;28;20044;-89
2023/10/21 06:16:06;;;;;;;7.65;5.22;;;11.10;99.90;;;;;;5010240;28;20047;-87
2023/10/21 06:18:32;;;;;;;6.88;4.68;;;11.10;99.90;;;;;;5026604;28;20462;-88
2023/10/21 06:20:58;;;;;;;4.97;4.15;;;11.10;99.90;;;;;;5028204;28;20048;-89
2023/10/21 06:23:25;;;;;;;7.85;5.18;;;11.10;99.90;;;;;;5028355;28;20451;-87
2023/10/21 06:25:51;;;;;;;5.70;4.72;;;11.10;99.90;;;;;;5025510;28;20348;-88
2023/10/21 06:28:18;;;;;;;6.82;5.57;;;11.20;99.90;;;;;;5027000;28;20047;-92
2023/10/21 06:30:44;;;;;;;8.82;6.32;;;11.30;99.90;;;;;;5044808;28;20053;-88
2023/10/21 06:33:11;;;;;;;11.85;8.75;;;11.30;99.90;;;;;;5027253;28;20032;-87
2023/10/21 06:35:38;;;;;;;13.43;9.55;;;11.40;99.90;;;;;;5012525;28;20032;-87
2023/10/21 06:38:08;;;;;;;9.40;8.30;;;11.40;99.90;;;;;;5028073;28;20040;-88
2023/10/21 06:40:35;;;;;;;9.65;7.93;;;11.40;99.90;;;;;;5030061;28;20047;-88
2023/10/21 06:43:01;;;;;;;9.50;8.02;;;11.40;99.90;;;;;;5026665;28;20431;-89
2023/10/21 06:45:28;;;;;;;10.57;7.60;;;11.40;99.90;;;;;;5010797;28;20059;-88
2023/10/21 06:47:54;;;;;;;8.70;7.63;;;11.40;99.90;;;;;;5028404;28;20467;-90
2023/10/21 06:50:20;;;;;;;9.20;7.25;;;11.30;99.90;;;;;;5025574;28;20041;-87
2023/10/21 06:52:47;;;;;;;11.00;7.60;;;11.30;99.90;;;;;;5025825;28;20037;-89
2023/10/21 06:55:14;;;;;;;8.88;6.05;;;11.30;99.90;;;;;;5026601;28;20443;-88
2023/10/21 06:57:40;;;;;;;9.48;6.45;;;11.30;99.90;;;;;;5042126;28;20055;-86
2023/10/21 07:00:07;;;;;;;10.88;7.47;;;11.30;99.90;;;;;;5045704;28;20059;-87
2023/10/21 07:02:33;;;;;;;8.25;6.65;;;11.40;99.90;;;;;;5033663;28;20049;-88
2023/10/21 07:05:00;;;;;;;9.50;7.05;;;11.40;99.90;;;;;;5028370;28;20582;-89
2023/10/21 07:07:26;;;;;;;10.65;8.43;;;11.40;99.90;;;;;;5013515;28;20059;-86
2023/10/21 07:09:52;;;;;;;11.60;9.35;;;11.50;99.90;;;;;;5025131;28;20692;-86
2023/10/21 07:12:25;;;;;;;14.20;11.27;;;11.60;99.90;;;;;;5029609;28;20041;-86
2023/10/21 07:14:51;;;;;;;16.15;11.57;;;11.70;99.90;;;;;;5027898;28;20048;-87
2023/10/21 07:17:18;;;;;;;14.10;11.35;;;11.80;99.90;;;;;;5024433;28;20044;-88
2023/10/21 07:20:05;;;;;;;11.65;9.98;;;11.90;99.90;;;;;;5044417;28;20048;-88
2023/10/21 07:22:32;;;;;;;11.90;9.38;;;12.00;99.90;;;;;;5026260;28;20037;-86
2023/10/21 07:24:58;;;;;;;12.07;9.52;;;12.00;99.90;;;;;;5030445;28;20047;-89
2023/10/21 07:27:26;;;;;;;12.75;10.63;;;12.10;99.90;;;;;;5025933;28;20735;-90
2023/10/21 07:29:52;;;;;;;12.60;9.93;;;12.20;99.90;;;;;;5024416;28;20044;-85
2023/10/21 07:32:19;;;;;;;11.48;9.45;;;12.20;99.90;;;;;;5011746;28;20044;-85
2023/10/21 07:34:45;;;;;;;16.95;11.63;;;12.30;99.90;;;;;;5027013;28;20045;-86
2023/10/21 07:37:11;;;;;;;13.25;10.13;;;12.30;99.90;;;;;;5059217;28;20040;-86
2023/10/21 07:39:38;;;;;;;16.58;11.95;;;12.40;99.90;;;;;;5010248;28;20036;-86
2023/10/21 07:42:04;;;;;;;14.98;10.35;;;12.40;99.90;;;;;;5061823;28;20044;-87
2023/10/21 07:44:31;;;;;;;15.10;9.65;;;12.50;99.90;;;;;;5042844;28;20048;-88
2023/10/21 07:46:57;;;;;;;13.68;9.77;;;12.60;99.90;;;;;;5008987;28;20044;-86
2023/10/21 07:49:24;;;;;;;17.58;11.05;;;12.70;99.90;;;;;;5027565;28;20049;-83
2023/10/21 07:51:51;;;;;;;16.23;10.13;;;12.70;99.90;;;;;;5045651;28;20047;-85
2023/10/21 07:54:17;;;;;;;16.05;11.15;;;12.80;99.90;;;;;;5041361;28;20040;-86
2023/10/21 07:56:45;;;;;;;12.85;9.00;;;12.80;99.90;;;;;;5040966;28;20056;-84
2023/10/21 07:59:11;;;;;;;14.88;9.80;;;12.90;99.90;;;;;;5024884;28;20044;-84
2023/10/21 08:01:38;;;;;;;12.75;9.88;;;12.90;99.90;;;;;;5039305;28;20047;-89
2023/10/21 08:04:04;;;;;;;15.68;10.50;;;13.00;99.90;;;;;;5025275;28;20683;-89
2023/10/21 08:06:31;;;;;;;15.93;11.48;;;13.00;99.90;;;;;;5041260;28;20028;-84
2023/10/21 08:08:57;;;;;;;14.25;11.20;;;13.10;99.90;;;;;;5021505;28;20502;-85
2023/10/21 08:11:24;;;;;;;17.70;12.00;;;13.10;99.90;;;;;;5024395;28;20055;-87
2023/10/21 08:13:51;;;;;;;11.50;10.02;;;13.10;99.90;;;;;;5023537;28;20044;-87
2023/10/21 08:16:17;;;;;;;17.55;11.07;;;13.10;99.90;;;;;;5008766;28;20045;-90
2023/10/21 08:18:43;;;;;;;22.48;17.27;;;13.20;99.90;;;;;;5038828;28;20063;-85
2023/10/21 08:21:10;;;;;;;14.00;12.43;;;13.20;99.90;;;;;;5042343;28;20040;-85
2023/10/21 08:23:36;;;;;;;14.25;11.25;;;13.20;99.90;;;;;;5009807;28;20048;-86
2023/10/21 08:26:03;;;;;;;15.85;10.20;;;13.20;99.90;;;;;;5025197;28;20040;-88
2023/10/21 08:28:30;;;;;;;11.60;9.18;;;13.20;99.90;;;;;;5008958;28;20446;-83
2023/10/21 08:30:56;;;;;;;12.00;7.28;;;13.20;99.90;;;;;;5024764;28;20041;-83
2023/10/21 08:33:22;;;;;;;6.38;3.50;;;13.30;99.90;;;;;;5026587;28;20032;-90
2023/10/21 08:35:49;;;;;;;4.15;3.00;;;13.30;99.90;;;;;;5022527;28;20045;-82
2023/10/21 08:38:15;;;;;;;3.17;2.75;;;13.20;99.90;;;;;;5023756;28;20079;-84
2023/10/21 08:40:46;;;;;;;5.07;3.33;;;13.30;99.90;;;;;;5027672;28;20415;-85
2023/10/21 08:43:17;;;;;;;3.78;2.70;;;13.30;99.90;;;;;;5024933;28;20048;-87
2023/10/21 08:45:44;;;;;;;6.07;2.97;;;13.50;99.90;;;;;;5026729;28;20475;-79
2023/10/21 08:48:12;;;;;;;5.05;2.97;;;13.70;99.90;;;;;;5025154;28;20049;-83
2023/10/21 08:50:39;;;;;;;6.95;4.75;;;13.80;99.90;;;;;;5027663;28;20044;-83
2023/10/21 08:53:06;;;;;;;6.90;3.67;;;13.90;99.90;;;;;;5011743;28;20040;-84
2023/10/21 08:55:35;;;;;;;3.53;2.65;;;14.00;99.90;;;;;;5044776;28;20036;-83
2023/10/21 08:58:02;;;;;;;3.55;1.83;;;13.90;99.90;;;;;;5024643;28;20044;-84
2023/10/21 09:00:29;;;;;;;2.75;1.95;;;13.80;99.90;;;;;;5029229;28;20040;-81
2023/10/21 09:02:55;;;;;;;2.80;1.40;;;13.80;99.90;;;;;;5031901;28;20055;-84
2023/10/21 09:05:22;;;;;;;2.10;1.38;;;13.70;99.90;;;;;;5028469;28;20492;-83
2023/10/21 09:07:50;;;;;;;4.93;1.00;;;13.70;99.90;;;;;;5012998;28;20480;-83
2023/10/21 09:10:17;;;;;;;2.40;1.05;;;13.70;99.90;;;;;;5026052;28;20691;-85
2023/10/21 09:12:43;;;;;;;2.97;1.63;;;13.70;99.90;;;;;;5040006;28;20048;-83
2023/10/21 09:15:10;;;;;;;2.35;0.88;;;13.70;99.90;;;;;;5042958;28;20044;-84
2023/10/21 09:17:45;;;;;;;1.83;1.02;;;13.70;99.90;;;;;;5009762;28;20044;-86
2023/10/21 09:20:16;;;;;;;2.17;0.90;;;13.80;99.90;;;;;;5007010;28;20051;-83
2023/10/21 09:22:44;;;;;;;1.77;0.95;;;13.90;99.90;;;;;;5025787;28;20049;-86
2023/10/21 09:25:18;;;;;;;1.98;0.85;;;13.90;99.90;;;;;;5025666;28;20044;-86
2023/10/21 09:27:53;;;;;;;1.85;0.82;;;14.00;99.90;;;;;;5041691;28;20067;-84
2023/10/21 09:30:24;;;;;;;1.92;1.05;;;14.00;99.90;;;;;;5043293;28;20040;-86
2023/10/21 09:32:51;;;;;;;2.20;0.70;;;14.10;99.90;;;;;;5025199;28;20047;-85
2023/10/21 09:35:21;;;;;;;3.08;1.33;;;14.20;99.90;;;;;;5028145;28;20287;-84
2023/10/21 09:37:48;;;;;;;1.48;0.82;;;14.20;99.90;;;;;;5027530;28;20040;-85
2023/10/21 09:40:15;;;;;;;2.00;0.68;;;14.20;99.90;;;;;;5027010;28;20396;-88
2023/10/21 09:42:42;;;;;;;3.45;0.60;;;14.10;99.90;;;;;;5032215;28;20048;-86
2023/10/21 09:45:10;;;;;;;1.63;0.70;;;14.10;99.90;;;;;;5012039;28;20040;-88
2023/10/21 09:47:39;;;;;;;1.02;0.47;;;14.10;99.90;;;;;;5027700;28;20048;-85
2023/10/21 09:50:10;;;;;;;1.67;0.70;;;14.00;99.90;;;;;;5025001;28;20048;-84
2023/10/21 09:52:52;;;;;;;3.05;0.55;;;14.00;99.90;;;;;;5040734;28;20052;-84
2023/10/21 09:55:24;;;;;;;2.60;0.50;;;14.00;99.90;;;;;;5024541;28;20041;-84
2023/10/21 09:57:55;;;;;;;1.45;0.40;;;13.90;99.90;;;;;;5037584;28;20041;-84
2023/10/21 10:00:24;;;;;;;1.70;0.40;;;13.90;99.90;;;;;;5029879;28;20049;-83
2023/10/21 10:02:53;;;;;;;2.13;0.40;;;14.00;99.90;;;;;;5044268;28;20041;-83
2023/10/21 10:05:21;;;;;;;1.65;0.35;;;14.10;99.90;;;;;;5025140;28;20041;-84
2023/10/21 10:07:49;;;;;;;1.35;0.50;;;14.10;99.90;;;;;;5039871;28;20048;-83
2023/10/21 10:10:21;;;;;;;2.08;0.80;;;14.00;99.90;;;;;;5039125;28;20045;-84
2023/10/21 10:13:09;;;;;;;1.48;0.40;;;14.00;99.90;;;;;;5040560;28;20411;-80
2023/10/21 10:15:37;;;;;;;2.47;0.40;;;14.00;99.90;;;;;;5022925;28;20107;-85
2023/10/21 10:18:08;;;;;;;2.05;0.35;;;14.00;99.90;;;;;;5054615;28;20070;-87
2023/10/21 10:20:44;;;;;;;3.13;0.40;;;14.00;99.90;;;;;;5038684;28;20040;-83
2023/10/21 10:23:11;;;;;;;2.33;0.40;;;14.00;99.90;;;;;;5041903;28;20053;-85
2023/10/21 10:25:39;;;;;;;4.80;0.70;;;14.10;99.90;;;;;;5004131;28;20037;-85
2023/10/21 10:28:10;;;;;;;4.38;0.73;;;14.10;99.90;;;;;;5003103;28;20530;-87
2023/10/21 10:30:44;;;;;;;2.30;0.77;;;14.20;99.90;;;;;;5023315;28;20033;-87
2023/10/21 10:33:15;;;;;;;4.32;0.70;;;14.30;99.90;;;;;;5041017;28;20036;-85
2023/10/21 10:35:49;;;;;;;2.58;0.60;;;14.50;99.90;;;;;;5036492;28;20043;-89
2023/10/21 10:38:24;;;;;;;1.35;0.47;;;14.60;99.90;;;;;;5055247;28;20040;-86
2023/10/21 10:41:14;;;;;;;1.77;0.50;;;14.70;99.90;;;;;;5020493;28;20880;-84
2023/10/21 10:43:45;;;;;;;4.95;3.58;;;14.90;99.90;;;;;;5019402;28;20041;-85
2023/10/21 10:46:17;;;;;;;4.65;1.67;;;15.10;99.90;;;;;;5037340;28;20123;-85
2023/10/21 10:48:46;;;;;;;3.38;0.73;;;15.20;99.90;;;;;;5025072;28;20037;-89
2023/10/21 10:51:15;;;;;;;2.90;0.60;;;15.20;99.90;;;;;;5024313;28;20045;-84
2023/10/21 10:53:56;;;;;;;3.10;0.40;;;15.20;99.90;;;;;;5026169;28;20036;-85
2023/10/21 10:56:25;;;;;;;3.67;0.55;;;15.20;99.90;;;;;;5039943;28;20048;-83
2023/10/21 10:58:52;;;;;;;2.15;0.30;;;15.10;99.90;;;;;;5055634;28;20042;-82
2023/10/21 11:01:25;;;;;;;1.80;0.68;;;15.20;99.90;;;;;;5023439;28;20048;-80
2023/10/21 11:04:02;;;;;;;2.70;0.45;;;15.10;99.90;;;;;;5040427;28;20047;-83
2023/10/21 11:06:39;;;;;;;2.38;0.32;;;15.10;99.90;;;;;;5051772;28;20567;-82
2023/10/21 11:09:20;;;;;;;3.50;0.60;;;15.00;99.90;;;;;;5024633;28;20056;-83
2023/10/21 11:11:48;;;;;;;1.38;0.40;;;15.10;99.90;;;;;;5040395;28;20040;-81
2023/10/21 11:14:16;;;;;;;3.60;0.40;;;15.20;99.90;;;;;;5023941;28;20044;-82
2023/10/21 11:16:44;;;;;;;2.58;0.77;;;15.20;99.90;;;;;;5037734;28;20391;-82
2023/10/21 11:19:10;;;;;;;3.17;0.38;;;15.20;99.90;;;;;;5006635;28;20052;-82
2023/10/21 11:21:48;;;;;;;4.38;0.55;;;15.30;99.90;;;;;;5053944;28;20419;-82
2023/10/21 11:24:15;;;;;;;1.48;0.40;;;15.30;99.90;;;;;;5022777;28;20383;-80
2023/10/21 11:26:42;;;;;;;3.90;0.63;;;15.30;99.90;;;;;;5039813;28;20096;-81
2023/10/21 11:29:09;;;;;;;2.20;0.40;;;15.30;99.90;;;;;;5040192;28;20039;-81
2023/10/21 11:31:35;;;;;;;3.30;0.30;;;15.30;99.90;;;;;;5023050;28;20039;-80
2023/10/21 11:34:12;;;;;;;2.15;0.47;;;15.30;99.90;;;;;;5029649;28;20043;-82
2023/10/21 11:36:44;;;;;;;3.50;0.43;;;15.40;99.90;;;;;;5040097;28;20059;-82
2023/10/21 11:39:14;;;;;;;2.38;0.40;;;15.50;99.90;;;;;;5021765;28;20045;-79
2023/10/21 11:41:48;;;;;;;3.58;0.50;;;15.70;99.90;;;;;;5056755;28;20044;-82
2023/10/21 11:44:17;;;;;;;3.80;0.50;;;15.80;99.90;;;;;;5026878;28;20040;-82
2023/10/21 11:46:44;;;;;;;2.08;0.40;;;15.80;99.90;;;;;;5024224;28;20044;-84
2023/10/21 11:49:13;;;;;;;2.67;0.60;;;15.90;99.90;;;;;;5055923;28;20047;-86
2023/10/21 11:51:49;;;;;;;3.33;0.45;;;16.00;99.90;;;;;;5041760;28;20048;-85
2023/10/21 11:54:32;;;;;;;1.70;0.40;;;16.20;99.90;;;;;;5022957;28;20044;-82
2023/10/21 12:03:29;;;;;;;5.45;1.80;;;17.60;99.90;;;;;;5055313;28;20052;-85
2023/10/21 12:11:06;;;;;;;3.90;0.93;;;17.20;99.90;;;;;;5025033;28;20036;-85
2023/10/21 12:37:36;;;;;;;2.78;0.40;;;18.40;99.90;;;;;;5025593;28;20044;-85
2023/10/21 12:43:16;;;;;;;1.50;0.30;;;17.80;99.90;;;;;;5023463;28;20041;-87
2023/10/21 12:45:44;;;;;;;5.13;1.05;;;17.70;99.90;;;;;;5040826;28;20041;-87
2023/10/21 12:48:17;;;;;;;7.47;1.20;;;17.50;99.90;;;;;;5023064;28;20056;-91
2023/10/21 12:50:49;;;;;;;6.57;2.20;;;17.20;99.90;;;;;;5024521;28;20052;-87
2023/10/21 12:53:19;;;;;;;3.17;1.30;;;17.00;99.90;;;;;;5038780;28;20048;-85
2023/10/21 12:55:47;;;;;;;3.78;0.95;;;16.90;99.90;;;;;;5036375;28;20059;-86
2023/10/21 12:58:14;;;;;;;4.03;0.50;;;16.80;99.90;;;;;;5037028;28;20044;-86
2023/10/21 13:00:43;;;;;;;4.20;0.60;;;16.50;99.90;;;;;;5021160;28;20123;-84
2023/10/21 13:03:11;;;;;;;4.00;0.55;;;16.40;99.90;;;;;;5008069;28;20514;-85
2023/10/21 13:05:43;;;;;;;4.18;0.50;;;16.30;99.90;;;;;;5059907;28;20037;-85
2023/10/21 13:08:10;;;;;;;4.00;0.50;;;16.30;99.90;;;;;;5025108;28;20057;-83
2023/10/21 13:10:36;;;;;;;4.63;0.80;;;16.30;99.90;;;;;;5040689;28;20037;-84
2023/10/21 13:13:04;;;;;;;5.30;0.75;;;16.30;99.90;;;;;;5024433;28;20479;-84
2023/10/21 13:15:31;;;;;;;6.75;0.70;;;16.30;99.90;;;;;;5019962;28;20055;-83
2023/10/21 13:17:57;;;;;;;5.47;0.65;;;16.20;99.90;;;;;;5035692;28;20459;-84
2023/10/21 13:20:24;;;;;;;4.05;0.60;;;16.10;99.90;;;;;;5021426;28;20055;-84
2023/10/21 13:22:54;;;;;;;8.00;0.50;;;15.90;99.90;;;;;;5022855;28;20043;-83
2023/10/21 13:25:21;;;;;;;7.07;1.10;;;15.80;99.90;;;;;;5036521;28;20037;-83
2023/10/21 13:27:48;;;;;;;4.55;0.68;;;15.60;99.90;;;;;;5036683;28;20051;-82
2023/10/21 13:30:14;;;;;;;4.32;0.77;;;15.60;99.90;;;;;;5025359;28;20781;-83
2023/10/21 13:32:43;;;;;;;6.40;0.63;;;15.50;99.90;;;;;;5042193;28;20052;-83
2023/10/21 13:35:09;;;;;;;4.15;0.60;;;15.60;99.90;;;;;;5025152;28;20403;-82
2023/10/21 13:37:38;;;;;;;4.45;0.65;;;15.60;99.90;;;;;;5025403;28;20051;-82
2023/10/21 13:40:15;;;;;;;3.70;0.50;;;15.60;99.90;;;;;;5025038;28;20040;-82
2023/10/21 13:42:46;;;;;;;4.57;1.42;;;15.50;99.90;;;;;;5012313;28;20052;-83
2023/10/21 13:45:26;;;;;;;6.03;0.60;;;15.40;99.90;;;;;;5009922;28;20442;-82
2023/10/21 13:47:57;;;;;;;4.22;0.70;;;15.30;99.90;;;;;;5053580;28;20048;-82
2023/10/21 13:50:25;;;;;;;8.23;0.95;;;15.20;99.90;;;;;;5038685;28;21180;-86
2023/10/21 13:53:10;;;;;;;2.78;0.55;;;15.20;99.90;;;;;;5059403;28;20048;-83
2023/10/21 13:55:37;;;;;;;4.65;0.60;;;15.20;99.90;;;;;;5045905;22;20059;-81
2023/10/21 13:58:04;;;;;;;5.20;0.60;;;15.20;99.90;;;;;;5052434;28;20048;-81
2023/10/21 14:03:09;;;;;;;2.65;0.52;;;15.10;99.90;;;;;;5075471;28;20044;-82
2023/10/21 14:05:50;;;;;;;2.90;0.50;;;15.10;99.90;;;;;;5026011;28;20791;-81
2023/10/21 14:08:19;;;;;;;6.25;0.68;;;15.10;99.90;;;;;;5046164;28;20071;-81
2023/10/21 14:10:49;;;;;;;4.32;0.80;;;15.10;99.90;;;;;;5041603;28;20036;-81
2023/10/21 14:13:21;;;;;;;4.88;0.60;;;15.20;99.90;;;;;;5039043;28;20055;-81